Time;durP1;ratioP1;P1;durP2;ratioP2;P2;SDS_P1;SDS_P2;PMS_P1;PMS_P2;Temp;Humidity;BMP_temperature;BMP_pressure;BME280_temperature;BME280_humidity;BME280_pressure;Samples;Min_cycle;Max_cycle;Signal;HPM_P1;HPM_P2
2022/11/13 00:00:45;;;;;;;13.10;6.13;;;7.20;99.90;;;;;;5004464;28;20050;-66
2022/11/13 00:03:10;;;;;;;14.15;6.15;;;7.20;99.90;;;;;;5006761;28;20092;-66
2022/11/13 00:05:36;;;;;;;21.55;7.05;;;7.30;99.90;;;;;;5003842;28;20022;-66
2022/11/13 00:08:02;;;;;;;20.48;8.05;;;7.30;99.90;;;;;;5006782;28;20510;-66
2022/11/13 00:10:28;;;;;;;18.05;6.20;;;7.20;99.90;;;;;;5003532;28;20163;-66
2022/11/13 00:12:54;;;;;;;11.70;6.45;;;7.20;99.90;;;;;;5009274;28;20026;-66
2022/11/13 00:15:21;;;;;;;14.20;7.60;;;7.20;99.90;;;;;;5001923;28;20105;-66
2022/11/13 00:17:46;;;;;;;9.05;5.15;;;7.20;99.90;;;;;;5010478;28;20021;-66
2022/11/13 00:20:12;;;;;;;15.00;6.50;;;7.10;99.90;;;;;;5001183;28;20113;-66
2022/11/13 00:22:38;;;;;;;9.27;4.93;;;7.10;99.90;;;;;;5011408;28;20124;-66
2022/11/13 00:25:04;;;;;;;15.38;6.43;;;7.10;99.90;;;;;;5000188;28;20042;-66
2022/11/13 00:27:30;;;;;;;11.05;5.25;;;7.10;99.90;;;;;;5011450;28;20033;-66
2022/11/13 00:29:56;;;;;;;14.65;5.45;;;7.10;99.90;;;;;;4999313;28;20031;-66
2022/11/13 00:32:22;;;;;;;21.08;7.32;;;7.10;99.90;;;;;;5009157;28;20052;-66
2022/11/13 00:34:47;;;;;;;22.15;8.13;;;7.00;99.90;;;;;;4998265;28;20483;-66
2022/11/13 00:37:13;;;;;;;15.48;6.18;;;6.90;99.90;;;;;;5009361;28;20041;-66
2022/11/13 00:39:39;;;;;;;11.93;5.25;;;6.90;99.90;;;;;;5001542;28;20031;-66
2022/11/13 00:42:04;;;;;;;11.35;5.45;;;6.90;99.90;;;;;;5007912;28;20386;-66
2022/11/13 00:44:30;;;;;;;15.38;5.57;;;6.90;99.90;;;;;;5003521;28;20059;-66
2022/11/13 00:46:56;;;;;;;31.73;6.63;;;6.90;99.90;;;;;;5006832;28;20030;-66
2022/11/13 00:49:22;;;;;;;9.25;5.40;;;6.90;99.90;;;;;;5005023;28;20473;-66
2022/11/13 00:51:47;;;;;;;11.77;5.63;;;6.90;99.90;;;;;;5005531;28;20045;-66
2022/11/13 00:54:13;;;;;;;11.52;6.25;;;6.90;99.90;;;;;;5005603;28;20037;-66
2022/11/13 00:56:39;;;;;;;11.77;5.57;;;6.90;99.90;;;;;;5004120;28;20501;-66
2022/11/13 00:59:04;;;;;;;11.18;5.32;;;6.90;99.90;;;;;;5006591;28;20033;-66
2022/11/13 01:01:30;;;;;;;13.95;6.38;;;6.90;99.90;;;;;;5000032;28;20038;-66
2022/11/13 01:03:56;;;;;;;8.98;5.15;;;6.90;99.90;;;;;;4994732;28;20040;-66
2022/11/13 01:06:25;;;;;;;9.02;4.70;;;6.90;99.90;;;;;;4999622;28;20092;-66
2022/11/13 01:08:55;;;;;;;14.05;7.18;;;6.80;99.90;;;;;;4996015;28;20274;-66
2022/11/13 01:11:26;;;;;;;13.57;7.28;;;6.80;99.90;;;;;;5001822;28;20044;-66
2022/11/13 01:13:52;;;;;;;20.55;4.93;;;6.80;99.90;;;;;;5001205;28;20040;-66
2022/11/13 01:16:24;;;;;;;12.57;5.65;;;6.80;99.90;;;;;;5003076;28;20038;-66
2022/11/13 01:18:54;;;;;;;13.30;4.93;;;6.80;99.90;;;;;;5002213;28;20053;-66
2022/11/13 01:21:26;;;;;;;14.23;5.90;;;6.80;99.90;;;;;;5009962;28;20458;-66
2022/11/13 01:23:53;;;;;;;15.25;5.60;;;6.70;99.90;;;;;;5006061;28;20034;-66
2022/11/13 01:26:27;;;;;;;10.55;5.82;;;6.70;99.90;;;;;;5002764;28;20033;-66
2022/11/13 01:28:54;;;;;;;11.68;5.15;;;6.70;99.90;;;;;;5003032;28;20408;-66
2022/11/13 01:31:24;;;;;;;16.60;6.00;;;6.60;99.90;;;;;;5001448;28;20037;-66
2022/11/13 01:33:50;;;;;;;10.32;4.97;;;6.50;99.90;;;;;;5005734;28;20034;-66
2022/11/13 01:36:26;;;;;;;17.67;5.70;;;6.50;99.90;;;;;;5001584;28;20390;-66
2022/11/13 01:38:53;;;;;;;8.30;4.50;;;6.50;99.90;;;;;;5003093;28;20135;-66
2022/11/13 01:41:32;;;;;;;10.90;5.10;;;6.50;99.90;;;;;;5001412;28;20110;-66
2022/11/13 01:43:59;;;;;;;12.57;6.53;;;6.50;99.90;;;;;;5004503;28;20037;-66
2022/11/13 01:46:32;;;;;;;11.02;4.60;;;6.50;99.90;;;;;;5001486;28;20030;-66
2022/11/13 01:49:07;;;;;;;6.85;3.65;;;6.50;99.90;;;;;;5004919;28;20040;-66
2022/11/13 01:52:00;;;;;;;11.05;5.50;;;6.40;99.90;;;;;;5002465;28;20036;-67
2022/11/13 01:54:32;;;;;;;12.02;5.47;;;6.40;99.90;;;;;;5002815;28;20049;-64
2022/11/13 01:56:59;;;;;;;11.02;4.68;;;6.40;99.90;;;;;;5006060;28;20030;-64
2022/11/13 01:59:37;;;;;;;13.68;6.82;;;6.40;99.90;;;;;;4998948;28;20045;-65
2022/11/13 02:02:03;;;;;;;10.75;4.47;;;6.50;99.90;;;;;;4989763;28;20146;-64
2022/11/13 02:04:31;;;;;;;9.40;5.35;;;6.40;99.90;;;;;;4995062;28;20551;-64
2022/11/13 02:07:05;;;;;;;10.75;4.80;;;6.40;99.90;;;;;;4978285;28;20038;-65
2022/11/13 02:09:47;;;;;;;9.68;4.97;;;6.30;99.90;;;;;;4978964;28;20026;-64
2022/11/13 02:12:20;;;;;;;13.73;6.03;;;6.30;99.90;;;;;;4991979;28;20822;-64
2022/11/13 02:14:52;;;;;;;9.50;4.82;;;6.40;99.90;;;;;;4997605;28;20034;-65
2022/11/13 02:17:28;;;;;;;15.73;5.05;;;6.40;99.90;;;;;;4988890;28;20485;-64
2022/11/13 02:19:59;;;;;;;8.30;4.15;;;6.30;99.90;;;;;;4997242;28;20438;-65
2022/11/13 02:22:45;;;;;;;11.88;5.22;;;6.30;99.90;;;;;;5008166;28;20034;-66
2022/11/13 02:25:12;;;;;;;7.15;3.95;;;6.30;99.90;;;;;;4989123;28;20667;-65
2022/11/13 02:27:48;;;;;;;9.52;4.10;;;6.30;99.90;;;;;;4993195;28;20073;-66
2022/11/13 02:30:28;;;;;;;14.65;5.15;;;6.30;99.90;;;;;;5002284;28;20060;-65
2022/11/13 02:35:36;;;;;;;11.73;4.07;;;6.20;99.90;;;;;;4979618;28;20061;-70
2022/11/13 02:38:04;;;;;;;15.23;4.68;;;6.20;99.90;;;;;;4955441;28;20498;-70
2022/11/13 02:40:31;;;;;;;9.27;4.43;;;6.30;99.90;;;;;;4982583;28;20494;-70
2022/11/13 02:42:57;;;;;;;12.25;5.85;;;6.30;99.90;;;;;;4974533;28;20415;-70
2022/11/13 02:45:23;;;;;;;11.30;3.53;;;6.20;99.90;;;;;;4984644;28;20099;-70
2022/11/13 02:47:49;;;;;;;9.75;4.75;;;6.20;99.90;;;;;;4994335;28;20093;-70
2022/11/13 02:50:16;;;;;;;10.35;5.35;;;6.20;99.90;;;;;;4980981;28;20134;-70
2022/11/13 02:52:42;;;;;;;9.55;4.07;;;6.10;99.90;;;;;;4994090;28;20038;-70
2022/11/13 02:55:08;;;;;;;7.07;4.15;;;6.10;99.90;;;;;;4983251;28;20097;-70
2022/11/13 02:57:34;;;;;;;8.20;4.90;;;6.10;99.90;;;;;;4993116;28;20030;-70
2022/11/13 03:00:00;;;;;;;8.68;4.80;;;6.10;99.90;;;;;;4999709;28;20097;-69
2022/11/13 03:02:25;;;;;;;8.27;4.55;;;6.10;99.90;;;;;;4993028;28;20109;-70
2022/11/13 03:04:51;;;;;;;8.48;4.35;;;6.10;99.90;;;;;;4985494;28;20039;-69
2022/11/13 03:07:17;;;;;;;11.05;5.68;;;6.10;99.90;;;;;;4983650;28;20518;-70
2022/11/13 03:09:43;;;;;;;14.70;6.03;;;6.10;99.90;;;;;;4986281;28;20031;-70
2022/11/13 03:12:09;;;;;;;6.20;4.85;;;6.10;99.90;;;;;;4982329;28;20035;-69
2022/11/13 03:14:35;;;;;;;9.48;4.15;;;6.10;99.90;;;;;;4981891;28;20030;-70
2022/11/13 03:17:01;;;;;;;10.43;4.70;;;6.10;99.90;;;;;;4980801;28;20026;-69
2022/11/13 03:19:27;;;;;;;11.18;5.18;;;6.10;99.90;;;;;;4976553;28;20038;-70
2022/11/13 03:21:53;;;;;;;7.47;3.90;;;6.10;99.90;;;;;;4985740;28;20022;-70
2022/11/13 03:24:19;;;;;;;12.70;5.00;;;6.10;99.90;;;;;;4988903;28;20046;-70
2022/11/13 03:26:45;;;;;;;8.00;4.60;;;6.00;99.90;;;;;;4985571;28;20030;-69
2022/11/13 03:29:10;;;;;;;7.22;4.57;;;6.00;99.90;;;;;;4975720;28;20166;-70
2022/11/13 03:31:36;;;;;;;6.63;2.95;;;5.90;99.90;;;;;;4985294;28;20513;-70
2022/11/13 03:34:02;;;;;;;10.00;4.30;;;5.90;99.90;;;;;;4986022;28;20113;-70
2022/11/13 03:36:28;;;;;;;8.07;3.65;;;5.80;99.90;;;;;;4999714;28;20429;-70
2022/11/13 03:38:54;;;;;;;5.43;3.70;;;5.80;99.90;;;;;;4981843;28;20027;-70
2022/11/13 03:41:21;;;;;;;9.40;4.00;;;5.80;99.90;;;;;;4969885;28;20117;-70
2022/11/13 03:43:47;;;;;;;7.20;4.05;;;5.80;99.90;;;;;;4976090;28;20026;-69
2022/11/13 03:46:13;;;;;;;6.55;3.53;;;5.70;99.90;;;;;;4978689;28;20136;-70
2022/11/13 03:48:39;;;;;;;4.72;3.65;;;5.70;99.90;;;;;;4984705;28;20070;-70
2022/11/13 03:51:04;;;;;;;5.78;3.20;;;5.70;99.90;;;;;;4988211;28;20038;-70
2022/11/13 03:53:30;;;;;;;8.63;3.55;;;5.70;99.90;;;;;;4980451;28;20251;-70
2022/11/13 03:55:56;;;;;;;6.60;3.47;;;5.60;99.90;;;;;;4981831;28;20431;-69
2022/11/13 03:58:22;;;;;;;9.88;3.60;;;5.60;99.90;;;;;;4987979;28;20054;-69
2022/11/13 04:00:49;;;;;;;5.78;3.67;;;5.60;99.90;;;;;;4981702;28;20030;-70
2022/11/13 04:03:14;;;;;;;6.22;3.40;;;5.60;99.90;;;;;;4987339;28;20176;-69
2022/11/13 04:05:42;;;;;;;10.05;4.30;;;5.60;99.90;;;;;;4989174;28;20506;-70
2022/11/13 04:08:08;;;;;;;4.63;3.63;;;5.70;99.90;;;;;;4989508;28;20449;-70
2022/11/13 04:10:34;;;;;;;6.95;4.15;;;5.60;99.90;;;;;;4979173;28;20031;-70
2022/11/13 04:13:01;;;;;;;7.22;4.18;;;5.60;99.90;;;;;;4988125;28;20085;-71
2022/11/13 04:15:26;;;;;;;10.32;4.38;;;5.70;99.90;;;;;;4978156;28;20426;-70
2022/11/13 04:17:52;;;;;;;6.60;3.70;;;5.70;99.90;;;;;;4981540;28;20038;-70
2022/11/13 04:20:18;;;;;;;6.53;3.47;;;5.70;99.90;;;;;;4983205;28;20030;-70
2022/11/13 04:22:44;;;;;;;7.47;4.07;;;5.70;99.90;;;;;;4990682;28;20469;-70
2022/11/13 04:25:09;;;;;;;16.80;4.38;;;5.50;99.90;;;;;;4983917;28;20092;-70
2022/11/13 04:27:35;;;;;;;6.20;3.13;;;5.50;99.90;;;;;;4988706;28;20037;-70
2022/11/13 04:30:02;;;;;;;8.00;3.05;;;5.50;99.90;;;;;;4984211;28;20057;-70
2022/11/13 04:32:28;;;;;;;6.93;4.18;;;5.50;99.90;;;;;;4988575;28;20486;-70
2022/11/13 04:34:54;;;;;;;8.32;3.97;;;5.50;99.90;;;;;;4983663;28;20129;-70
2022/11/13 04:37:19;;;;;;;8.30;4.38;;;5.50;99.90;;;;;;4990884;28;20505;-70
2022/11/13 04:39:45;;;;;;;8.85;5.05;;;5.60;99.90;;;;;;4984047;28;20037;-69
2022/11/13 04:44:55;;;;;;;9.70;3.10;;;5.60;99.90;;;;;;4983982;28;20402;-70
2022/11/13 04:47:21;;;;;;;7.03;3.90;;;5.60;99.90;;;;;;4989140;28;20039;-69
2022/11/13 04:49:47;;;;;;;9.52;3.75;;;5.60;99.90;;;;;;4983704;28;20031;-69
2022/11/13 04:52:13;;;;;;;6.95;3.95;;;5.50;99.90;;;;;;4988700;28;20023;-69
2022/11/13 04:54:38;;;;;;;6.43;4.20;;;5.50;99.90;;;;;;4982572;28;20027;-70
2022/11/13 04:57:04;;;;;;;23.63;4.72;;;5.40;99.90;;;;;;4990685;28;20657;-70
2022/11/13 04:59:30;;;;;;;7.53;4.28;;;5.40;99.90;;;;;;4983425;28;20030;-70
2022/11/13 05:01:56;;;;;;;5.80;4.18;;;5.40;99.90;;;;;;4991830;28;20394;-70
2022/11/13 05:04:22;;;;;;;4.60;3.03;;;5.30;99.90;;;;;;4979794;28;20062;-70
2022/11/13 05:06:48;;;;;;;10.43;3.97;;;5.30;99.90;;;;;;4984245;28;20034;-70
2022/11/13 05:09:14;;;;;;;7.90;4.32;;;5.30;99.90;;;;;;4962075;28;20041;-70
2022/11/13 05:11:40;;;;;;;8.23;4.15;;;5.30;99.90;;;;;;4958526;28;20046;-70
2022/11/13 05:14:05;;;;;;;13.80;3.95;;;5.20;99.90;;;;;;4979355;28;20487;-70
2022/11/13 05:16:33;;;;;;;7.93;4.25;;;5.20;99.90;;;;;;4974629;28;20030;-70
2022/11/13 05:18:59;;;;;;;9.02;4.45;;;5.20;99.90;;;;;;4977304;28;20386;-70
2022/11/13 05:21:25;;;;;;;6.25;3.88;;;5.30;99.90;;;;;;4979587;28;20034;-70
2022/11/13 05:23:51;;;;;;;6.93;3.63;;;5.20;99.90;;;;;;4962461;28;20108;-70
2022/11/13 05:26:16;;;;;;;7.80;3.30;;;5.20;99.90;;;;;;4963307;28;20545;-70
2022/11/13 05:28:42;;;;;;;7.70;3.13;;;5.20;99.90;;;;;;4957252;28;20110;-70
2022/11/13 05:31:14;;;;;;;4.30;3.42;;;5.20;99.90;;;;;;4962599;28;20040;-70
2022/11/13 05:33:42;;;;;;;6.70;3.40;;;5.20;99.90;;;;;;4978125;28;20039;-70
2022/11/13 05:36:11;;;;;;;6.75;3.20;;;5.20;99.90;;;;;;4975408;28;20058;-70
2022/11/13 05:38:39;;;;;;;18.33;3.30;;;5.20;99.90;;;;;;4954304;28;20691;-70
2022/11/13 05:41:07;;;;;;;7.43;3.97;;;5.10;99.90;;;;;;4962181;28;20041;-70
2022/11/13 05:43:35;;;;;;;4.30;3.17;;;5.20;99.90;;;;;;4960708;28;20046;-70
2022/11/13 05:46:11;;;;;;;7.00;3.70;;;5.10;99.90;;;;;;4963022;28;20070;-70
2022/11/13 05:48:38;;;;;;;6.20;3.15;;;5.00;99.90;;;;;;4975786;28;20049;-70
2022/11/13 05:51:10;;;;;;;5.50;2.95;;;5.00;99.90;;;;;;4962115;28;20558;-70
2022/11/13 05:53:36;;;;;;;5.00;2.70;;;5.00;99.90;;;;;;4974385;28;22156;-70
2022/11/13 05:56:28;;;;;;;9.30;2.88;;;5.00;99.90;;;;;;4962278;28;20026;-70
2022/11/13 05:58:54;;;;;;;;;;;4.90;99.90;;;;;;4976785;28;20037;-70
2022/11/13 06:01:26;;;;;;;16.02;7.50;;;5.00;99.90;;;;;;4965578;28;20009;-70
2022/11/13 06:03:55;;;;;;;9.98;4.72;;;4.90;99.90;;;;;;4966176;28;20663;-69
2022/11/13 06:06:22;;;;;;;6.78;4.28;;;5.10;99.90;;;;;;4965722;28;20109;-70
2022/11/13 06:08:50;;;;;;;5.28;3.47;;;5.10;99.90;;;;;;4966657;28;20558;-70
2022/11/13 06:11:21;;;;;;;6.47;3.42;;;5.10;99.90;;;;;;4960475;28;20038;-70
2022/11/13 06:13:49;;;;;;;10.15;6.18;;;5.10;99.90;;;;;;4981487;28;20661;-71
2022/11/13 06:16:19;;;;;;;20.92;5.47;;;5.10;99.90;;;;;;4980931;28;20459;-70
2022/11/13 06:18:46;;;;;;;3.08;2.22;;;5.20;99.90;;;;;;4965873;28;20026;-70
2022/11/13 06:21:18;;;;;;;11.60;5.63;;;5.20;99.90;;;;;;4965784;28;20038;-70
2022/11/13 06:23:44;;;;;;;7.63;3.13;;;5.20;99.90;;;;;;4959931;28;20037;-70
2022/11/13 06:26:32;;;;;;;5.47;4.03;;;5.10;99.90;;;;;;4980444;28;20030;-70
2022/11/13 06:28:59;;;;;;;18.92;7.43;;;5.10;99.90;;;;;;4977851;28;20034;-70
2022/11/13 06:31:29;;;;;;;13.65;4.88;;;5.10;99.90;;;;;;4979935;28;20072;-69
2022/11/13 06:33:55;;;;;;;7.30;2.50;;;5.20;99.90;;;;;;4960322;28;20030;-70
2022/11/13 06:36:25;;;;;;;5.43;3.83;;;5.10;99.90;;;;;;4961891;28;20034;-71
2022/11/13 06:38:51;;;;;;;3.90;3.08;;;5.20;99.90;;;;;;4959321;28;20413;-69
2022/11/13 06:41:20;;;;;;;6.15;3.35;;;5.10;99.90;;;;;;4966775;28;20026;-70
2022/11/13 06:43:46;;;;;;;4.90;2.15;;;5.10;99.90;;;;;;4979760;28;20097;-70
2022/11/13 06:46:22;;;;;;;6.65;3.05;;;5.20;99.90;;;;;;4967667;28;20046;-70
2022/11/13 06:48:48;;;;;;;7.25;4.70;;;5.10;99.90;;;;;;4967197;28;20054;-70
2022/11/13 06:51:21;;;;;;;8.18;3.15;;;5.10;99.90;;;;;;4964929;28;20106;-70
2022/11/13 06:53:47;;;;;;;6.05;3.40;;;5.20;99.90;;;;;;4969613;28;20038;-71
2022/11/13 06:56:14;;;;;;;4.45;2.85;;;5.10;99.90;;;;;;4969365;28;20444;-71
2022/11/13 06:58:40;;;;;;;6.32;4.18;;;5.10;99.90;;;;;;4979579;28;20730;-70
2022/11/13 07:01:13;;;;;;;6.10;3.22;;;5.10;99.90;;;;;;4970121;28;20031;-70
2022/11/13 07:03:40;;;;;;;6.18;2.53;;;5.10;99.90;;;;;;4974184;28;20398;-70
2022/11/13 07:06:12;;;;;;;8.77;4.32;;;5.10;99.90;;;;;;4984550;28;20022;-70
2022/11/13 07:08:40;;;;;;;6.30;2.97;;;5.20;99.90;;;;;;4989962;28;20052;-72
2022/11/13 07:11:06;;;;;;;9.05;4.38;;;5.10;99.90;;;;;;4985026;28;20390;-71
2022/11/13 07:13:32;;;;;;;6.30;3.80;;;5.20;99.90;;;;;;4983210;28;20077;-71
2022/11/13 07:16:07;;;;;;;6.13;3.40;;;5.20;99.90;;;;;;4984144;28;20030;-70
2022/11/13 07:18:33;;;;;;;6.45;3.10;;;5.30;99.90;;;;;;4991794;28;20057;-71
2022/11/13 07:21:08;;;;;;;6.65;3.83;;;5.30;99.90;;;;;;4983732;28;20485;-70
2022/11/13 07:23:44;;;;;;;6.88;4.20;;;5.30;99.90;;;;;;4991678;28;20062;-71
2022/11/13 07:26:11;;;;;;;6.18;2.88;;;5.20;99.90;;;;;;4985247;28;20033;-71
2022/11/13 07:28:37;;;;;;;7.03;4.40;;;5.20;99.90;;;;;;4989589;28;20034;-74
2022/11/13 07:31:03;;;;;;;5.53;3.63;;;5.20;99.90;;;;;;4983270;28;20049;-71
2022/11/13 07:33:29;;;;;;;6.90;3.25;;;5.20;99.90;;;;;;4991090;28;20034;-70
2022/11/13 07:35:56;;;;;;;9.57;4.82;;;5.30;99.90;;;;;;4985157;28;20046;-70
2022/11/13 07:38:23;;;;;;;8.95;4.63;;;5.30;99.90;;;;;;4991481;28;20097;-72
2022/11/13 07:40:49;;;;;;;7.60;2.92;;;5.30;99.90;;;;;;4984896;28;20112;-71
2022/11/13 07:43:15;;;;;;;9.13;3.67;;;5.10;99.90;;;;;;4983816;28;20546;-69
2022/11/13 07:45:41;;;;;;;8.93;4.43;;;5.20;99.90;;;;;;4986129;28;20030;-72
2022/11/13 07:48:07;;;;;;;5.03;2.65;;;5.20;99.90;;;;;;4978653;28;20053;-71
2022/11/13 07:50:35;;;;;;;5.75;3.33;;;5.20;99.90;;;;;;4976348;28;20050;-70
2022/11/13 07:53:06;;;;;;;3.03;2.20;;;5.10;99.90;;;;;;4971661;28;20031;-71
2022/11/13 07:55:34;;;;;;;5.05;3.40;;;5.10;99.90;;;;;;4993297;28;20037;-71
2022/11/13 07:58:01;;;;;;;3.88;2.80;;;5.10;99.90;;;;;;4971719;28;20698;-70
2022/11/13 08:00:28;;;;;;;8.68;3.25;;;5.20;99.90;;;;;;4997944;28;20058;-71
2022/11/13 08:02:55;;;;;;;5.03;3.83;;;5.20;99.90;;;;;;5008050;28;20030;-71
2022/11/13 08:05:21;;;;;;;5.13;2.75;;;5.20;99.90;;;;;;4980376;28;20034;-72
2022/11/13 08:07:51;;;;;;;7.20;3.58;;;5.30;99.90;;;;;;5001288;28;20709;-73
2022/11/13 08:10:19;;;;;;;13.43;4.50;;;5.30;99.90;;;;;;4980527;28;20479;-73
2022/11/13 08:12:45;;;;;;;12.32;6.75;;;5.40;99.90;;;;;;4986875;28;20049;-72
2022/11/13 08:15:11;;;;;;;5.78;3.88;;;5.50;99.90;;;;;;4980745;28;20027;-72
2022/11/13 08:17:37;;;;;;;8.75;3.78;;;5.40;99.90;;;;;;4991510;28;20026;-72
2022/11/13 08:20:05;;;;;;;5.90;3.35;;;5.50;99.90;;;;;;4981267;28;20073;-72
2022/11/13 08:22:31;;;;;;;4.45;3.03;;;5.60;99.90;;;;;;4992129;28;20068;-72
2022/11/13 08:24:57;;;;;;;5.60;2.38;;;5.60;99.90;;;;;;4978259;28;20055;-72
2022/11/13 08:27:23;;;;;;;4.25;2.38;;;5.50;99.90;;;;;;4988314;28;20135;-73
2022/11/13 08:29:50;;;;;;;8.65;3.67;;;5.40;99.90;;;;;;4979900;28;20049;-72
2022/11/13 08:32:18;;;;;;;6.97;3.58;;;5.50;99.90;;;;;;4973528;28;20058;-71
2022/11/13 08:34:44;;;;;;;4.20;2.80;;;5.40;99.90;;;;;;4999873;23;20049;-76
2022/11/13 08:37:10;;;;;;;5.95;3.33;;;5.50;99.90;;;;;;4995698;28;20040;-76
2022/11/13 08:39:36;;;;;;;5.43;3.40;;;5.50;99.90;;;;;;4991721;28;20026;-75
2022/11/13 08:42:03;;;;;;;5.45;3.47;;;5.60;99.90;;;;;;5000148;28;20084;-75
2022/11/13 08:44:30;;;;;;;6.47;3.90;;;5.70;99.90;;;;;;4975968;28;20038;-74
2022/11/13 08:46:57;;;;;;;5.13;3.50;;;5.50;99.90;;;;;;4970522;28;20022;-76
2022/11/13 08:49:23;;;;;;;5.97;3.35;;;5.50;99.90;;;;;;4969116;28;20034;-75
2022/11/13 08:51:49;;;;;;;4.38;3.28;;;5.50;99.90;;;;;;4964769;28;20037;-75
2022/11/13 08:54:15;;;;;;;4.43;3.17;;;5.60;99.90;;;;;;4965306;28;20031;-75
2022/11/13 08:56:41;;;;;;;6.28;3.50;;;5.50;99.90;;;;;;4966656;28;20030;-75
2022/11/13 08:59:09;;;;;;;15.60;3.90;;;5.60;99.90;;;;;;4964690;28;20093;-75
2022/11/13 09:01:34;;;;;;;6.90;2.78;;;5.70;99.90;;;;;;4968921;28;20629;-74
2022/11/13 09:04:01;;;;;;;6.60;4.00;;;5.60;99.90;;;;;;4969844;28;20117;-75
2022/11/13 09:06:27;;;;;;;4.65;3.47;;;5.60;99.90;;;;;;4963580;28;20038;-74
2022/11/13 09:08:52;;;;;;;9.63;3.47;;;5.60;99.90;;;;;;4967912;28;20530;-74
2022/11/13 09:11:18;;;;;;;4.65;2.28;;;5.60;99.90;;;;;;4961882;28;20030;-76
2022/11/13 09:13:44;;;;;;;6.35;3.63;;;5.70;99.90;;;;;;4967844;28;20410;-75
2022/11/13 09:16:10;;;;;;;5.38;3.13;;;5.80;99.90;;;;;;4972052;28;20802;-75
2022/11/13 09:18:35;;;;;;;6.07;3.60;;;5.80;99.90;;;;;;4974578;28;20137;-75
2022/11/13 09:21:02;;;;;;;8.40;4.70;;;5.80;99.90;;;;;;4975559;28;20065;-74
2022/11/13 09:23:28;;;;;;;7.45;3.97;;;5.90;99.90;;;;;;4974648;28;20125;-75
2022/11/13 09:25:54;;;;;;;8.32;4.57;;;6.00;99.90;;;;;;4975471;28;20043;-76
2022/11/13 09:28:19;;;;;;;5.20;2.97;;;6.10;99.90;;;;;;5003461;28;20084;-76
2022/11/13 09:30:45;;;;;;;4.30;2.67;;;6.20;99.90;;;;;;4970322;28;20076;-76
2022/11/13 09:33:14;;;;;;;7.60;4.43;;;6.30;99.90;;;;;;4970207;28;20645;-77
2022/11/13 09:35:42;;;;;;;8.02;5.20;;;6.30;99.90;;;;;;4971701;28;20030;-76
2022/11/13 09:38:12;;;;;;;5.03;2.88;;;6.30;99.90;;;;;;4981086;28;20030;-77
2022/11/13 09:40:46;;;;;;;4.93;3.25;;;6.30;99.90;;;;;;4982565;28;20508;-76
2022/11/13 09:43:52;;;;;;;5.25;2.90;;;6.30;99.90;;;;;;4962978;28;20085;-77
2022/11/13 09:46:41;;;;;;;5.50;3.58;;;6.50;99.90;;;;;;4987682;28;20031;-76
2022/11/13 09:49:30;;;;;;;5.00;3.50;;;6.50;99.90;;;;;;4949006;28;20031;-76
2022/11/13 09:52:14;;;;;;;7.53;3.63;;;6.50;99.90;;;;;;4979682;28;20183;-76
2022/11/13 09:54:40;;;;;;;11.52;3.20;;;6.60;99.90;;;;;;4971314;28;20116;-77
2022/11/13 09:57:15;;;;;;;10.73;4.63;;;6.60;99.90;;;;;;4981600;28;20065;-76
2022/11/13 09:59:58;;;;;;;5.95;3.33;;;6.80;99.90;;;;;;4973399;28;20027;-77
2022/11/13 10:03:06;;;;;;;7.28;3.83;;;6.90;99.90;;;;;;4974893;28;20041;-77
2022/11/13 10:06:44;;;;;;;6.65;4.30;;;6.90;99.90;;;;;;4942227;28;20061;-75
2022/11/13 10:09:57;;;;;;;8.63;3.50;;;6.90;99.90;;;;;;4942931;28;20042;-76
2022/11/13 10:12:26;;;;;;;5.47;2.88;;;7.00;99.90;;;;;;4987024;28;20073;-75
2022/11/13 10:14:54;;;;;;;9.05;4.68;;;6.80;99.90;;;;;;4963872;28;20485;-75
2022/11/13 10:17:43;;;;;;;8.55;4.25;;;6.90;99.90;;;;;;4971652;28;20034;-75
2022/11/13 10:20:28;;;;;;;7.25;4.43;;;7.00;99.90;;;;;;4984844;28;20057;-75
2022/11/13 10:23:15;;;;;;;5.43;3.45;;;7.10;99.90;;;;;;4984041;28;20108;-74
2022/11/13 10:25:43;;;;;;;7.28;4.28;;;7.20;99.90;;;;;;4988338;28;20034;-73
2022/11/13 10:28:27;;;;;;;9.27;4.85;;;7.30;99.90;;;;;;4981164;28;20332;-78
2022/11/13 10:30:52;;;;;;;10.85;4.63;;;7.30;99.90;;;;;;4977378;28;20057;-74
2022/11/13 10:33:21;;;;;;;11.30;4.53;;;7.30;99.90;;;;;;4980550;28;20038;-74
2022/11/13 10:36:05;;;;;;;7.13;4.25;;;7.10;99.90;;;;;;4975174;28;20037;-74
2022/11/13 10:38:48;;;;;;;6.78;4.47;;;7.30;99.90;;;;;;4983187;28;20037;-75
2022/11/13 10:41:20;;;;;;;8.65;4.57;;;7.20;99.90;;;;;;4986768;28;20025;-74
2022/11/13 10:43:54;;;;;;;5.68;3.72;;;7.20;99.90;;;;;;4988131;28;20026;-75
2022/11/13 10:46:28;;;;;;;10.25;5.30;;;7.20;99.90;;;;;;4989897;28;20034;-76
2022/11/13 10:49:09;;;;;;;6.00;3.28;;;7.00;99.90;;;;;;4983581;28;20042;-75
2022/11/13 10:51:35;;;;;;;9.80;6.03;;;7.10;99.90;;;;;;4983723;28;20046;-76
2022/11/13 10:54:21;;;;;;;9.90;5.55;;;7.30;99.90;;;;;;4991840;28;20038;-76
2022/11/13 10:57:03;;;;;;;8.70;4.50;;;7.40;99.90;;;;;;5000506;28;20026;-76
2022/11/13 10:59:43;;;;;;;8.50;5.57;;;7.50;99.90;;;;;;4976265;28;20034;-76
2022/11/13 11:02:25;;;;;;;7.45;3.85;;;7.60;99.90;;;;;;4987753;28;20065;-75
2022/11/13 11:05:05;;;;;;;;;;;7.90;99.90;;;;;;4993302;28;20098;-73
2022/11/13 11:07:39;;;;;;;6.65;4.82;;;8.00;99.90;;;;;;5003143;28;19944;-74
2022/11/13 11:12:14;;;;;;;7.50;5.03;;;8.00;99.90;;;;;;4982824;28;20038;-74
2022/11/13 11:13:27;;;;;;;7.43;4.38;;;8.10;99.90;;;;;;4987890;28;20505;-74
2022/11/13 11:15:58;;;;;;;11.75;5.35;;;7.90;99.90;;;;;;5004607;28;20143;-75
2022/11/13 11:18:33;;;;;;;7.15;4.20;;;8.00;99.90;;;;;;4992414;28;20035;-76
2022/11/13 11:21:05;;;;;;;5.88;3.95;;;8.00;99.90;;;;;;4991891;28;20088;-76
2022/11/13 11:24:22;;;;;;;6.13;3.50;;;7.90;99.90;;;;;;4982211;28;20412;-75
2022/11/13 11:26:53;;;;;;;9.48;5.13;;;7.60;99.90;;;;;;4984602;28;20050;-75
2022/11/13 11:29:31;;;;;;;7.50;3.85;;;7.30;99.90;;;;;;4984202;28;20117;-76
2022/11/13 11:32:30;;;;;;;7.30;4.45;;;7.60;99.90;;;;;;4988440;28;20054;-78
2022/11/13 11:35:24;;;;;;;6.50;4.00;;;7.80;99.90;;;;;;4984422;28;20035;-75
2022/11/13 11:38:08;;;;;;;9.43;5.10;;;7.50;99.90;;;;;;4976780;28;20448;-75
2022/11/13 11:40:41;;;;;;;9.90;4.78;;;8.10;99.90;;;;;;4988569;28;20042;-76
2022/11/13 11:43:27;;;;;;;9.27;5.20;;;9.80;99.90;;;;;;4986769;28;20030;-76
2022/11/13 11:45:53;;;;;;;7.57;4.47;;;11.30;99.90;;;;;;4986584;28;20529;-75
2022/11/13 11:48:27;;;;;;;7.05;4.00;;;13.10;99.90;;;;;;4985894;28;20038;-76
2022/11/13 11:51:20;;;;;;;5.68;3.72;;;13.40;99.90;;;;;;4985640;28;20030;-76
2022/11/13 11:54:01;;;;;;;5.95;3.13;;;14.70;99.90;;;;;;4980133;28;20089;-77
2022/11/13 11:56:44;;;;;;;8.43;4.45;;;16.10;99.90;;;;;;4981053;28;20030;-77
2022/11/13 11:59:34;;;;;;;9.15;4.38;;;14.00;99.90;;;;;;4987731;28;20089;-73
2022/11/13 12:02:23;;;;;;;6.40;3.55;;;13.50;99.90;;;;;;4982650;28;20498;-72
2022/11/13 12:05:24;;;;;;;6.15;3.50;;;14.00;99.90;;;;;;4985690;28;20075;-73
2022/11/13 12:08:16;;;;;;;7.57;4.53;;;13.40;99.90;;;;;;4980039;28;20375;-81
2022/11/13 12:10:51;;;;;;;9.25;4.40;;;13.10;99.90;;;;;;4982790;28;20569;-80
2022/11/13 12:13:36;;;;;;;6.93;4.32;;;14.40;99.90;;;;;;4990223;28;20132;-79
2022/11/13 12:16:08;;;;;;;9.68;5.30;;;13.70;99.90;;;;;;4988355;28;20393;-77
2022/11/13 12:18:57;;;;;;;9.02;4.10;;;13.10;99.90;;;;;;4988194;28;20529;-82
2022/11/13 12:21:53;;;;;;;8.70;4.25;;;13.00;99.90;;;;;;5003531;28;20045;-79
2022/11/13 12:24:31;;;;;;;15.85;8.13;;;13.30;99.90;;;;;;4987258;28;20041;-81
2022/11/13 12:27:36;;;;;;;10.90;4.80;;;14.70;99.90;;;;;;4979657;28;20054;-79
2022/11/13 12:30:26;;;;;;;11.88;3.70;;;13.90;99.90;;;;;;4977770;28;20042;-79
2022/11/13 12:33:27;;;;;;;9.67;4.50;;;14.90;99.90;;;;;;4979760;28;20058;-80
2022/11/13 12:35:53;;;;;;;7.15;2.95;;;16.50;99.90;;;;;;4984116;28;20502;-81
2022/11/13 12:38:49;;;;;;;5.75;3.38;;;17.00;99.90;;;;;;4982612;28;20062;-81
2022/11/13 12:41:59;;;;;;;6.22;3.53;;;17.20;99.90;;;;;;4983731;28;20033;-77
2022/11/13 12:44:27;;;;;;;5.65;3.13;;;16.60;99.90;;;;;;4984023;28;20053;-79
2022/11/13 12:46:59;;;;;;;6.53;2.90;;;16.70;99.90;;;;;;4985185;28;20046;-77
2022/11/13 12:49:34;;;;;;;6.05;3.00;;;16.60;99.90;;;;;;4989287;28;20449;-68
2022/11/13 12:52:17;;;;;;;6.10;2.88;;;17.40;99.90;;;;;;4990050;28;20848;-68
2022/11/13 12:54:43;;;;;;;3.72;2.72;;;18.00;99.90;;;;;;4984570;28;20433;-68
2022/11/13 12:57:11;;;;;;;4.55;2.55;;;17.60;99.90;;;;;;4990712;28;20026;-77
2022/11/13 12:59:44;;;;;;;7.97;2.85;;;16.90;99.90;;;;;;4983891;28;20038;-78
2022/11/13 13:02:13;;;;;;;3.88;2.75;;;16.10;99.90;;;;;;4979399;28;20049;-77
2022/11/13 13:05:15;;;;;;;5.38;2.30;;;16.20;99.90;;;;;;4982907;28;20109;-79
2022/11/13 13:08:30;;;;;;;5.25;2.40;;;17.20;99.90;;;;;;4980323;28;20031;-78
2022/11/13 13:11:36;;;;;;;5.85;2.65;;;18.00;99.90;;;;;;4986232;28;20034;-75
2022/11/13 13:14:44;;;;;;;3.75;2.28;;;17.60;99.90;;;;;;4986918;28;20077;-75
2022/11/13 13:17:21;;;;;;;6.32;2.95;;;17.40;99.90;;;;;;4972993;28;20039;-76
2022/11/13 13:20:13;;;;;;;5.53;2.95;;;17.90;99.90;;;;;;4985303;28;20022;-74
2022/11/13 13:22:39;;;;;;;4.53;2.30;;;18.20;99.90;;;;;;4982311;28;20046;-74